Time;durP1;ratioP1;P1;durP2;ratioP2;P2;SDS_P1;SDS_P2;PMS_P1;PMS_P2;Temp;Humidity;BMP_temperature;BMP_pressure;BME280_temperature;BME280_humidity;BME280_pressure;Samples;Min_cycle;Max_cycle;Signal;HPM_P1;HPM_P2
2022/02/19 00:00:21;;;;;;;9.73;2.10;;;;;;;5.37;62.05;100415.03;5056567;28;20072;-36
2022/02/19 00:02:47;;;;;;;12.52;2.38;;;;;;;5.43;62.10;100421.41;5056196;28;20033;-36
2022/02/19 00:05:14;;;;;;;6.47;1.70;;;;;;;5.46;62.38;100407.56;5056250;28;20055;-36
2022/02/19 00:07:39;;;;;;;12.60;2.40;;;;;;;5.37;62.38;100432.97;5038732;28;20112;-36
2022/02/19 00:10:06;;;;;;;10.13;2.00;;;;;;;5.43;62.33;100437.50;5055753;28;20481;-36
2022/02/19 00:12:31;;;;;;;;;;;;;;;5.46;62.61;100438.94;5056489;28;20266;-36
2022/02/19 00:14:56;;;;;;;7.00;2.27;;;;;;;5.36;62.80;100442.03;5056315;28;20004;-36
2022/02/19 00:17:22;;;;;;;9.00;2.00;;;;;;;5.40;62.38;100459.34;5055896;28;20275;-36
2022/02/19 00:19:48;;;;;;;12.65;2.60;;;;;;;5.37;62.70;100444.53;5054649;28;20374;-36
2022/02/19 00:22:14;;;;;;;7.70;1.88;;;;;;;5.33;62.48;100461.22;5055664;28;20032;-36
2022/02/19 00:24:39;;;;;;;7.90;2.25;;;;;;;5.30;63.74;100462.44;5056422;28;20033;-36
2022/02/19 00:27:05;;;;;;;10.23;2.07;;;;;;;5.28;64.71;100475.25;5055832;28;20104;-36
2022/02/19 00:29:30;;;;;;;10.10;2.43;;;;;;;5.28;64.09;100488.66;5056145;28;20060;-36
2022/02/19 00:31:56;;;;;;;9.00;1.95;;;;;;;5.24;64.48;100487.41;5055877;28;20036;-36
2022/02/19 00:34:21;;;;;;;13.67;3.47;;;;;;;5.25;64.92;100502.44;5055767;28;20029;-36
2022/02/19 00:36:46;;;;;;;7.20;1.93;;;;;;;5.16;64.83;100485.72;5055358;28;20032;-36
2022/02/19 00:39:12;;;;;;;9.17;2.43;;;;;;;5.10;65.44;100469.66;5055372;28;20029;-36
2022/02/19 00:41:38;;;;;;;9.47;1.70;;;;;;;5.19;66.02;100491.72;5055828;28;20033;-36
2022/02/19 00:44:05;;;;;;;8.68;2.88;;;;;;;5.20;65.13;100521.00;5055692;28;20548;-36
2022/02/19 00:46:30;;;;;;;9.90;2.38;;;;;;;5.17;65.97;100516.03;5056093;28;20109;-37
2022/02/19 00:48:56;;;;;;;6.37;1.73;;;;;;;5.20;65.95;100523.69;5055330;28;20029;-37
2022/02/19 00:51:21;;;;;;;8.57;2.10;;;;;;;5.20;65.51;100529.03;5055370;28;20025;-37
2022/02/19 00:53:47;;;;;;;14.27;3.33;;;;;;;5.11;65.62;100515.00;5055303;28;20029;-37
2022/02/19 00:56:13;;;;;;;8.38;2.22;;;;;;;5.18;66.27;100531.13;5055240;28;20374;-36
2022/02/19 00:58:38;;;;;;;8.80;2.90;;;;;;;5.18;65.56;100543.69;5055344;28;20052;-36
2022/02/19 01:01:05;;;;;;;8.40;2.20;;;;;;;5.21;65.69;100551.31;5055111;28;20029;-36
2022/02/19 01:03:31;;;;;;;8.38;2.00;;;;;;;5.23;65.25;100566.19;5055289;28;20462;-36
2022/02/19 01:05:57;;;;;;;12.63;2.70;;;;;;;5.13;65.43;100558.53;5054063;28;20393;-36
2022/02/19 01:08:22;;;;;;;7.28;2.33;;;;;;;5.19;65.82;100562.25;5054709;28;20021;-36
2022/02/19 01:10:48;;;;;;;10.80;2.60;;;;;;;5.23;65.06;100566.19;5054889;28;20366;-36
2022/02/19 01:13:13;;;;;;;12.93;2.50;;;;;;;5.21;65.15;100564.72;5053555;28;20052;-36
2022/02/19 01:15:39;;;;;;;10.27;2.25;;;;;;;5.12;66.39;100566.75;5054206;28;20115;-36
2022/02/19 01:18:04;;;;;;;8.30;2.47;;;;;;;5.14;65.43;100573.56;5054872;28;20101;-36
2022/02/19 01:20:30;;;;;;;10.07;2.53;;;;;;;5.20;65.77;100617.50;5054792;28;20083;-36
2022/02/19 01:22:55;;;;;;;7.35;2.00;;;;;;;5.23;65.82;100602.88;5054639;28;20039;-36
2022/02/19 01:25:21;;;;;;;8.83;1.97;;;;;;;5.22;65.97;100612.78;5055294;28;20064;-36
2022/02/19 01:27:46;;;;;;;9.50;2.37;;;;;;;5.15;66.59;100590.47;5054604;28;20057;-36
2022/02/19 01:30:12;;;;;;;13.63;2.90;;;;;;;5.19;66.48;100610.50;5054903;28;20047;-36
2022/02/19 01:32:37;;;;;;;6.73;1.80;;;;;;;5.22;66.20;100610.09;5054542;28;20033;-36
2022/02/19 01:35:03;;;;;;;9.85;2.03;;;;;;;5.20;66.28;100628.22;5054859;28;20020;-36
2022/02/19 01:37:28;;;;;;;12.52;2.30;;;;;;;5.12;66.06;100636.44;5054926;28;20086;-36
2022/02/19 01:39:54;;;;;;;8.77;1.70;;;;;;;5.20;66.52;100638.94;5054786;28;20036;-36
2022/02/19 01:42:19;;;;;;;9.30;2.67;;;;;;;5.20;66.46;100636.28;5054994;28;20032;-36
2022/02/19 01:44:46;;;;;;;10.10;2.63;;;;;;;5.21;66.92;100651.31;5054932;28;20415;-36
2022/02/19 01:47:12;;;;;;;9.40;1.70;;;;;;;5.20;67.06;100657.72;5054542;28;20385;-36
2022/02/19 01:49:38;;;;;;;7.00;2.08;;;;;;;5.21;66.29;100658.53;5053914;28;20032;-36
2022/02/19 01:52:06;;;;;;;10.02;2.30;;;;;;;5.13;66.86;100657.72;5053854;28;20033;-36
2022/02/19 01:54:32;;;;;;;8.93;2.00;;;;;;;5.13;65.05;100652.34;5054084;28;20098;-36
2022/02/19 01:56:59;;;;;;;9.60;2.53;;;;;;;5.18;65.16;100700.00;5054031;28;20037;-36
2022/02/19 01:59:26;;;;;;;16.60;2.33;;;;;;;5.19;66.02;100687.41;5053606;28;20048;-36
2022/02/19 02:01:51;;;;;;;9.00;2.10;;;;;;;5.11;66.31;100683.03;5053778;28;20055;-36
2022/02/19 02:04:16;;;;;;;9.83;2.43;;;;;;;5.18;66.51;100697.31;5054249;28;20466;-36
2022/02/19 02:06:42;;;;;;;9.00;2.20;;;;;;;5.13;66.50;100702.44;5053661;28;20048;-36
2022/02/19 02:09:08;;;;;;;8.48;2.10;;;;;;;5.16;66.92;100704.72;5053653;28;20075;-36
2022/02/19 02:11:33;;;;;;;7.85;2.60;;;;;;;5.16;66.81;100704.72;5054396;28;20043;-36
2022/02/19 02:13:59;;;;;;;7.97;2.17;;;;;;;5.16;66.19;100721.63;5054301;28;20024;-36
2022/02/19 02:16:42;;;;;;;8.65;2.13;;;;;;;5.11;65.57;100713.34;5053782;28;20029;-36
2022/02/19 02:19:08;;;;;;;8.55;2.08;;;;;;;5.17;65.88;100733.16;5053766;28;20037;-36
2022/02/19 02:21:35;;;;;;;12.75;2.30;;;;;;;5.18;65.50;100742.88;5054176;28;20111;-36
2022/02/19 02:24:00;;;;;;;9.98;2.33;;;;;;;5.15;66.82;100746.78;5053777;28;20032;-36
2022/02/19 02:26:27;;;;;;;9.27;1.65;;;;;;;5.12;65.61;100741.84;5054060;28;20036;-36
2022/02/19 02:28:53;;;;;;;9.70;1.98;;;;;;;5.06;66.54;100729.19;5053968;28;20060;-36
2022/02/19 02:31:18;;;;;;;11.03;2.43;;;;;;;5.10;66.68;100748.41;5053825;28;20469;-36
2022/02/19 02:33:46;;;;;;;9.37;2.20;;;;;;;5.07;66.65;100749.59;5053678;28;20043;-36
2022/02/19 02:36:11;;;;;;;8.82;1.85;;;;;;;5.07;66.63;100756.81;5053420;28;20339;-36
2022/02/19 02:38:36;;;;;;;7.50;2.17;;;;;;;5.06;66.22;100752.50;5053146;28;20539;-36
2022/02/19 02:41:02;;;;;;;8.43;1.80;;;;;;;5.07;66.86;100759.50;5053101;28;20036;-36
2022/02/19 02:43:27;;;;;;;9.53;1.97;;;;;;;5.07;66.20;100759.50;5053038;28;20064;-36
2022/02/19 02:45:53;;;;;;;6.73;2.00;;;;;;;5.04;66.32;100759.91;5052952;28;20040;-36
2022/02/19 02:48:18;;;;;;;8.80;2.33;;;;;;;5.07;66.46;100765.69;5053208;28;20025;-36
2022/02/19 02:50:43;;;;;;;10.43;2.17;;;;;;;5.05;66.85;100770.44;5053678;28;20283;-36
2022/02/19 02:53:09;;;;;;;5.43;1.60;;;;;;;5.06;66.48;100769.41;5053389;28;20032;-36
2022/02/19 02:55:35;;;;;;;9.93;1.97;;;;;;;5.08;66.70;100791.50;5053162;28;20454;-36
2022/02/19 02:58:00;;;;;;;;;;;;;;;5.12;66.93;100791.91;5053504;28;20424;-36
2022/02/19 03:00:26;;;;;;;7.18;2.25;;;;;;;5.09;67.15;100789.63;5053296;28;19958;-36
2022/02/19 03:02:51;;;;;;;15.70;2.80;;;;;;;5.08;66.95;100798.72;5053374;28;20029;-36
2022/02/19 03:05:17;;;;;;;10.77;2.70;;;;;;;5.01;67.14;100789.78;5053090;28;20025;-36
2022/02/19 03:07:42;;;;;;;14.00;3.70;;;;;;;5.04;67.76;100814.34;5052782;28;20377;-37
2022/02/19 03:10:09;;;;;;;10.83;2.23;;;;;;;5.04;67.78;100808.97;5053189;28;20025;-37
2022/02/19 03:12:34;;;;;;;10.85;2.28;;;;;;;5.04;66.91;100816.19;5052666;28;20536;-37
2022/02/19 03:15:00;;;;;;;8.02;2.25;;;;;;;5.05;67.62;100821.34;5052916;28;20107;-36
2022/02/19 03:17:25;;;;;;;9.33;2.67;;;;;;;4.98;67.19;100814.28;5053694;28;20123;-36
2022/02/19 03:19:50;;;;;;;9.87;2.47;;;;;;;4.97;68.01;100820.66;5052697;28;20503;-36
2022/02/19 03:22:16;;;;;;;10.93;2.00;;;;;;;5.02;67.38;100842.34;5051724;28;20053;-36
2022/02/19 03:24:41;;;;;;;10.93;2.60;;;;;;;5.02;67.80;100845.03;5052716;28;20025;-36
2022/02/19 03:27:07;;;;;;;6.93;1.70;;;;;;;5.03;66.91;100841.34;5052866;28;20045;-36
2022/02/19 03:29:35;;;;;;;6.87;2.00;;;;;;;5.02;66.97;100853.06;5054459;28;20043;-36
2022/02/19 03:32:01;;;;;;;10.90;2.42;;;;;;;4.95;67.04;100858.38;5056858;28;20036;-36
2022/02/19 03:34:26;;;;;;;7.10;2.05;;;;;;;5.02;66.78;100864.63;5057380;28;20029;-36
2022/02/19 03:36:51;;;;;;;12.67;2.50;;;;;;;4.94;66.43;100854.06;5056457;28;20113;-36
2022/02/19 03:39:17;;;;;;;12.20;3.03;;;;;;;5.03;65.94;100881.56;5057016;28;20078;-36
2022/02/19 03:41:43;;;;;;;9.73;2.90;;;;;;;5.01;66.51;100880.91;5056878;28;20112;-36
2022/02/19 03:44:08;;;;;;;14.38;2.60;;;;;;;5.03;67.05;100886.91;5056625;28;20441;-36
2022/02/19 03:46:36;;;;;;;10.07;2.50;;;;;;;5.00;66.25;100898.00;5056328;28;20021;-36
2022/02/19 03:49:01;;;;;;;13.63;2.65;;;;;;;5.03;65.82;100900.31;5056403;28;20025;-36
2022/02/19 03:51:27;;;;;;;12.55;2.28;;;;;;;4.98;66.38;100905.41;5056278;28;20085;-37
2022/02/19 03:53:52;;;;;;;14.73;2.83;;;;;;;4.85;66.45;100885.50;5054729;28;20045;-36
2022/02/19 03:56:18;;;;;;;13.03;2.73;;;;;;;4.96;65.20;100923.53;5056831;28;20029;-37
2022/02/19 03:58:43;;;;;;;17.80;3.65;;;;;;;4.89;64.69;100910.91;5056657;28;20076;-36
2022/02/19 04:01:08;;;;;;;7.17;2.30;;;;;;;4.85;64.78;100919.53;5056483;28;20133;-36
2022/02/19 04:03:34;;;;;;;6.20;1.90;;;;;;;4.82;65.02;100931.44;5056214;28;20033;-36
2022/02/19 04:05:59;;;;;;;15.57;3.20;;;;;;;4.87;65.24;100946.94;5056022;28;20067;-36
2022/02/19 04:08:25;;;;;;;13.57;2.67;;;;;;;4.85;65.66;100955.19;5055852;28;20098;-36
2022/02/19 04:10:51;;;;;;;9.68;2.60;;;;;;;4.83;66.06;100953.69;5056524;28;20021;-36
2022/02/19 04:13:16;;;;;;;10.75;3.20;;;;;;;4.80;67.08;100956.78;5055194;28;20071;-36
2022/02/19 04:15:42;;;;;;;13.57;2.80;;;;;;;4.70;66.89;100953.59;5056167;28;20038;-36
2022/02/19 04:18:07;;;;;;;10.27;2.00;;;;;;;4.74;67.86;100968.25;5055827;28;20037;-36
2022/02/19 04:20:33;;;;;;;11.50;3.00;;;;;;;4.74;67.47;100968.25;5056306;28;20350;-36
2022/02/19 04:22:58;;;;;;;14.20;2.50;;;;;;;4.73;67.86;100967.41;5055918;28;20020;-36
2022/02/19 04:25:27;;;;;;;11.57;3.15;;;;;;;4.73;67.50;100972.75;5056249;28;20090;-36
2022/02/19 04:27:54;;;;;;;14.00;2.90;;;;;;;4.75;66.80;100986.81;5056243;28;20029;-36
2022/02/19 04:30:19;;;;;;;10.45;2.50;;;;;;;4.74;67.10;100978.97;5056024;28;20028;-36
2022/02/19 04:32:45;;;;;;;11.43;2.33;;;;;;;4.75;66.10;100986.00;5055496;28;20473;-36
2022/02/19 04:35:10;;;;;;;14.57;2.57;;;;;;;4.73;65.99;100994.19;5056576;28;20029;-36
2022/02/19 04:37:36;;;;;;;10.10;2.35;;;;;;;4.74;65.73;100990.53;5056432;28;20025;-36
2022/02/19 04:40:04;;;;;;;8.70;2.47;;;;;;;4.74;66.30;100997.72;5055633;28;20048;-36
2022/02/19 04:42:30;;;;;;;9.07;2.50;;;;;;;4.72;66.23;101000.56;5055241;28;20377;-36
2022/02/19 04:44:55;;;;;;;9.63;2.40;;;;;;;4.75;65.97;101013.59;5055021;28;20037;-36
2022/02/19 04:47:21;;;;;;;12.93;2.73;;;;;;;4.77;66.48;101018.75;5055274;28;20428;-36
2022/02/19 04:49:46;;;;;;;11.10;2.70;;;;;;;4.78;66.51;101013.25;5055506;28;20025;-36
2022/02/19 04:52:12;;;;;;;8.80;2.20;;;;;;;4.63;66.03;100996.34;5056122;28;20025;-36
2022/02/19 04:54:37;;;;;;;9.63;2.10;;;;;;;4.80;66.44;101021.91;5055668;28;20033;-36
2022/02/19 04:57:03;;;;;;;11.73;2.20;;;;;;;4.82;65.67;101029.75;5055324;28;20033;-36
2022/02/19 04:59:28;;;;;;;12.60;2.57;;;;;;;4.83;66.11;101040.28;5056064;28;20492;-36
2022/02/19 05:01:53;;;;;;;10.47;2.03;;;;;;;4.79;65.73;101030.97;5055441;28;20423;-36
2022/02/19 05:04:19;;;;;;;11.37;2.30;;;;;;;4.80;65.55;101040.66;5055552;28;20108;-36
2022/02/19 05:06:45;;;;;;;10.57;2.35;;;;;;;4.87;66.04;101060.31;5055080;28;20115;-36
2022/02/19 05:09:10;;;;;;;9.43;2.50;;;;;;;4.88;65.61;101053.09;5055068;28;20021;-36
2022/02/19 05:11:35;;;;;;;14.27;3.07;;;;;;;4.90;66.06;101070.66;5055103;28;20028;-36
2022/02/19 05:14:01;;;;;;;9.10;2.70;;;;;;;4.83;65.25;101056.38;5055128;28;20025;-36
2022/02/19 05:16:26;;;;;;;6.00;1.77;;;;;;;4.87;66.19;101065.66;5055050;28;20029;-36
2022/02/19 05:18:51;;;;;;;10.57;2.43;;;;;;;4.89;65.75;101069.00;5054695;28;20037;-36
2022/02/19 05:21:17;;;;;;;8.40;2.10;;;;;;;4.83;66.96;101064.41;5055375;28;20108;-36
2022/02/19 05:23:42;;;;;;;11.13;2.37;;;;;;;4.88;66.63;101078.06;5054586;28;20083;-36
2022/02/19 05:26:07;;;;;;;12.30;2.27;;;;;;;4.90;66.00;101080.56;5055559;28;20021;-36
2022/02/19 05:28:33;;;;;;;12.03;3.30;;;;;;;4.69;66.91;101057.22;5054630;28;20025;-36
2022/02/19 05:30:58;;;;;;;12.63;2.07;;;;;;;4.90;66.14;101076.03;5055263;28;20129;-36
2022/02/19 05:33:23;;;;;;;12.80;2.40;;;;;;;4.90;67.00;101083.25;5054582;28;20461;-37
2022/02/19 05:35:49;;;;;;;9.60;2.07;;;;;;;4.89;66.77;101097.66;5055228;28;20032;-36
2022/02/19 05:38:14;;;;;;;8.20;3.20;;;;;;;4.88;66.56;101088.78;5054348;28;20025;-37
2022/02/19 05:40:39;;;;;;;11.00;2.73;;;;;;;4.79;67.15;101073.00;5054590;28;20036;-36
2022/02/19 05:43:04;;;;;;;8.20;2.07;;;;;;;4.80;66.63;101078.16;5054494;28;20035;-37
2022/02/19 05:45:31;;;;;;;14.83;2.37;;;;;;;4.82;67.43;101100.25;5053066;28;20035;-36
2022/02/19 05:47:58;;;;;;;10.90;2.42;;;;;;;4.76;67.16;101090.28;5053109;28;20025;-36
2022/02/19 05:50:24;;;;;;;12.90;3.22;;;;;;;4.80;67.35;101110.31;5054265;28;20060;-36
2022/02/19 05:52:49;;;;;;;11.60;2.90;;;;;;;4.79;67.58;101107.84;5053630;28;20068;-36
2022/02/19 05:55:14;;;;;;;7.47;2.23;;;;;;;4.79;67.85;101118.56;5054240;28;20040;-36
2022/02/19 05:57:42;;;;;;;8.33;2.10;;;;;;;4.71;67.91;101114.13;5053961;28;20025;-36
2022/02/19 06:00:08;;;;;;;10.43;2.80;;;;;;;4.77;67.64;101133.97;5053984;28;20053;-36
2022/02/19 06:02:33;;;;;;;9.82;2.10;;;;;;;4.79;67.71;101126.59;5054099;28;20040;-36
2022/02/19 06:04:58;;;;;;;9.37;2.20;;;;;;;4.78;67.98;101128.44;5054125;28;20377;-36
2022/02/19 06:07:24;;;;;;;9.43;2.53;;;;;;;4.76;67.13;101122.44;5054234;28;20036;-36
2022/02/19 06:09:49;;;;;;;10.47;2.90;;;;;;;4.81;66.19;101127.22;5053922;28;20465;-36
2022/02/19 06:12:14;;;;;;;12.37;3.03;;;;;;;4.79;66.70;101132.78;5054236;28;20033;-36
2022/02/19 06:14:40;;;;;;;8.83;2.17;;;;;;;4.79;66.80;101129.28;5054371;28;20024;-36
2022/02/19 06:17:05;;;;;;;8.53;2.10;;;;;;;4.77;67.69;101126.75;5054333;28;20021;-36
2022/02/19 06:19:30;;;;;;;8.27;1.80;;;;;;;4.79;67.84;101140.00;5054068;28;20033;-36
2022/02/19 06:21:56;;;;;;;10.27;2.07;;;;;;;4.76;67.85;101125.09;5053655;28;20108;-36
2022/02/19 06:24:21;;;;;;;10.47;2.57;;;;;;;4.77;67.51;101134.81;5054048;28;20025;-36
2022/02/19 06:26:46;;;;;;;7.13;1.73;;;;;;;4.78;68.17;101141.84;5053336;28;20028;-36
2022/02/19 06:29:12;;;;;;;11.97;2.27;;;;;;;4.77;69.49;101156.22;5053645;28;20195;-36
2022/02/19 06:31:37;;;;;;;9.37;2.20;;;;;;;4.75;70.40;101160.97;5053212;28;20029;-36
2022/02/19 06:34:02;;;;;;;9.90;2.20;;;;;;;4.68;71.56;101161.88;5053771;28;20032;-36
2022/02/19 06:36:28;;;;;;;15.37;3.23;;;;;;;4.58;73.00;101167.50;5053962;28;20033;-36
2022/02/19 06:38:53;;;;;;;10.70;2.03;;;;;;;4.53;73.07;101169.91;5053397;28;20060;-36
2022/02/19 06:41:18;;;;;;;7.20;1.83;;;;;;;4.36;73.41;101162.03;5053685;28;20074;-36
2022/02/19 06:43:44;;;;;;;8.43;2.13;;;;;;;4.35;73.63;101176.44;5053172;28;20029;-36
2022/02/19 06:46:09;;;;;;;11.43;3.13;;;;;;;4.28;73.94;101180.03;5053380;28;20057;-36
2022/02/19 06:48:35;;;;;;;10.57;2.23;;;;;;;4.20;75.25;101191.66;5053454;28;20070;-36
2022/02/19 06:51:00;;;;;;;7.07;2.60;;;;;;;4.18;75.05;101193.66;5053024;28;20021;-36
2022/02/19 06:53:26;;;;;;;8.77;2.20;;;;;;;4.16;75.06;101195.69;5053336;28;20324;-36
2022/02/19 06:55:51;;;;;;;11.75;2.60;;;;;;;4.18;74.83;101215.06;5052856;28;20017;-37
2022/02/19 06:58:17;;;;;;;9.07;2.37;;;;;;;4.16;75.32;101217.09;5053080;28;20052;-36
2022/02/19 07:00:42;;;;;;;11.27;2.30;;;;;;;4.14;75.27;101217.28;5053198;28;20370;-36
2022/02/19 07:03:07;;;;;;;10.90;2.13;;;;;;;4.14;74.89;101219.94;5053356;28;20079;-36
2022/02/19 07:05:33;;;;;;;9.17;1.90;;;;;;;4.15;75.42;101223.47;5053103;28;20640;-36
2022/02/19 07:07:58;;;;;;;8.73;1.87;;;;;;;4.12;75.01;101238.03;5052736;28;20029;-36
2022/02/19 07:10:24;;;;;;;10.37;2.67;;;;;;;4.16;74.97;101227.81;5053216;28;20108;-36
2022/02/19 07:12:49;;;;;;;9.63;2.47;;;;;;;4.12;75.43;101243.41;5052726;28;20021;-36
2022/02/19 07:15:20;;;;;;;9.53;2.90;;;;;;;4.07;74.98;101236.91;5053173;28;20033;-36
2022/02/19 07:17:53;;;;;;;8.00;2.00;;;;;;;4.03;74.99;101224.91;5052914;28;20067;-36
2022/02/19 07:20:21;;;;;;;11.02;2.05;;;;;;;4.16;74.79;101251.91;5053390;28;20060;-36
2022/02/19 07:22:47;;;;;;;6.95;2.00;;;;;;;4.13;75.00;101257.59;5052526;28;20055;-36
2022/02/19 07:25:13;;;;;;;7.93;2.22;;;;;;;4.12;75.03;101264.81;5052840;28;20029;-36
2022/02/19 07:27:40;;;;;;;8.40;1.95;;;;;;;4.15;74.97;101266.31;5052784;28;20029;-36
2022/02/19 07:30:07;;;;;;;10.57;2.17;;;;;;;4.18;75.02;101275.81;5052510;28;20029;-36
2022/02/19 07:32:34;;;;;;;9.73;2.60;;;;;;;4.06;75.19;101260.16;5052689;28;20033;-36
2022/02/19 07:34:59;;;;;;;6.97;2.10;;;;;;;4.15;74.60;101274.34;5053290;28;20044;-36
2022/02/19 07:37:25;;;;;;;7.97;2.23;;;;;;;3.94;74.53;101247.38;5052468;28;20037;-36
2022/02/19 07:39:51;;;;;;;10.07;2.40;;;;;;;4.13;74.46;101281.69;5052588;28;20036;-36
2022/02/19 07:42:16;;;;;;;7.82;2.17;;;;;;;4.07;74.88;101277.88;5053198;28;20029;-36
2022/02/19 07:44:41;;;;;;;11.02;2.75;;;;;;;4.15;74.31;101285.03;5053045;28;20029;-36
2022/02/19 07:47:07;;;;;;;8.83;3.07;;;;;;;4.17;74.33;101288.38;5052745;28;20029;-36
2022/02/19 08:00:28;;;;;;;9.80;2.35;;;;;;;4.30;74.48;101312.72;5052146;28;20615;-36
2022/02/19 08:02:54;;;;;;;8.35;2.72;;;;;;;4.30;74.83;101317.22;5052706;28;20041;-37
2022/02/19 08:05:20;;;;;;;8.15;2.28;;;;;;;4.14;74.04;101302.91;5052578;28;20034;-36
2022/02/19 08:07:45;;;;;;;11.70;2.70;;;;;;;4.24;74.43;101324.09;5052156;28;20032;-34
2022/02/19 08:10:11;;;;;;;12.27;2.70;;;;;;;4.23;75.21;101325.13;5052421;28;20033;-35
2022/02/19 08:12:36;;;;;;;9.80;2.57;;;;;;;4.20;75.36;101328.16;5052444;28;20021;-35
2022/02/19 08:15:01;;;;;;;9.00;2.40;;;;;;;4.14;75.45;101323.50;5052962;28;20039;-36
2022/02/19 08:17:29;;;;;;;10.40;2.90;;;;;;;4.11;76.24;101321.19;5056129;28;20044;-35
2022/02/19 08:19:54;;;;;;;12.20;2.53;;;;;;;3.93;76.56;101299.22;5055697;28;20100;-35
2022/02/19 08:22:19;;;;;;;10.97;3.07;;;;;;;4.19;76.69;101336.34;5056602;28;20121;-36
2022/02/19 08:24:45;;;;;;;10.73;2.50;;;;;;;4.20;76.36;101314.78;5056528;28;20031;-36
2022/02/19 08:27:10;;;;;;;10.93;3.10;;;;;;;4.48;76.17;101341.00;5056183;28;20033;-36
2022/02/19 08:29:36;;;;;;;7.57;2.37;;;;;;;4.49;75.08;101331.97;5056522;28;20025;-36
2022/02/19 08:32:02;;;;;;;;;;;;;;;4.61;74.47;101344.75;5056203;28;20039;-36
2022/02/19 08:34:27;;;;;;;10.90;3.00;;;;;;;4.61;74.39;101350.13;5056105;28;19999;-36
2022/02/19 08:36:56;;;;;;;8.20;2.37;;;;;;;4.49;74.54;101323.94;5055712;28;20091;-35
2022/02/19 08:39:21;;;;;;;9.32;2.92;;;;;;;4.78;74.23;101352.66;5055650;28;20060;-36
2022/02/19 08:41:47;;;;;;;11.63;2.75;;;;;;;4.77;73.68;101359.88;5055919;28;20063;-36
2022/02/19 08:44:12;;;;;;;12.77;2.40;;;;;;;4.76;73.69;101360.06;5056465;28;20540;-36
2022/02/19 08:46:38;;;;;;;9.43;2.50;;;;;;;4.72;74.23;101359.56;5055404;28;20087;-35
2022/02/19 08:49:03;;;;;;;14.00;2.40;;;;;;;4.65;73.90;101345.25;5055719;28;20108;-35
2022/02/19 08:51:29;;;;;;;9.47;3.37;;;;;;;4.83;74.22;101367.19;5056093;28;20025;-36
2022/02/19 08:53:54;;;;;;;6.90;2.00;;;;;;;4.98;73.98;101367.25;5055796;28;20408;-36
2022/02/19 08:56:19;;;;;;;7.87;2.23;;;;;;;5.03;72.39;101370.22;5056136;28;20042;-36
2022/02/19 08:58:45;;;;;;;13.67;2.30;;;;;;;5.02;73.58;101371.19;5055532;28;20049;-36
2022/02/19 09:01:11;;;;;;;14.15;2.90;;;;;;;5.05;73.72;101373.53;5055420;28;20041;-36
2022/02/19 09:03:37;;;;;;;11.88;2.78;;;;;;;5.19;73.65;101384.47;5055274;28;20466;-36
2022/02/19 09:06:03;;;;;;;8.25;2.30;;;;;;;5.19;72.16;101373.75;5055543;28;20039;-36
2022/02/19 09:08:28;;;;;;;12.15;2.30;;;;;;;5.20;72.53;101386.97;5054977;28;20397;-36
2022/02/19 09:10:53;;;;;;;15.17;3.07;;;;;;;5.18;72.17;101389.00;5055332;28;20335;-35
2022/02/19 09:13:19;;;;;;;12.43;2.50;;;;;;;5.27;72.60;101382.56;5055088;28;20036;-35
2022/02/19 09:15:46;;;;;;;11.00;2.50;;;;;;;5.32;72.37;101390.88;5055041;28;20124;-35
2022/02/19 09:18:12;;;;;;;11.50;2.50;;;;;;;5.40;72.01;101384.59;5054986;28;20032;-36
2022/02/19 09:20:37;;;;;;;10.13;2.75;;;;;;;5.43;71.94;101374.31;5055726;28;20025;-35
2022/02/19 09:23:03;;;;;;;10.60;2.57;;;;;;;5.64;73.00;101396.91;5054846;28;20025;-35
2022/02/19 09:25:28;;;;;;;13.93;2.42;;;;;;;5.69;71.15;101375.72;5054722;28;20029;-35
2022/02/19 09:27:54;;;;;;;11.33;2.73;;;;;;;5.73;70.80;101397.63;5054093;28;20036;-35
2022/02/19 09:30:20;;;;;;;8.50;2.38;;;;;;;5.75;70.54;101396.41;5055400;28;20111;-35
2022/02/19 09:32:45;;;;;;;6.32;2.33;;;;;;;5.68;70.21;101388.28;5054766;28;20029;-36
2022/02/19 09:35:12;;;;;;;9.63;2.00;;;;;;;5.58;70.41;101389.59;5055252;28;20029;-35
2022/02/19 09:37:38;;;;;;;13.35;2.70;;;;;;;5.63;71.49;101390.69;5054842;28;20024;-35
2022/02/19 09:40:05;;;;;;;11.05;2.38;;;;;;;5.68;70.95;101390.16;5054911;28;20116;-36
2022/02/19 09:42:30;;;;;;;9.93;2.70;;;;;;;5.82;71.50;101393.84;5054563;28;20028;-35
2022/02/19 09:44:57;;;;;;;9.95;2.60;;;;;;;5.83;70.28;101401.69;5055419;28;20029;-35
2022/02/19 09:47:28;;;;;;;11.85;2.67;;;;;;;5.78;70.74;101401.44;5054476;28;20029;-36
2022/02/19 09:49:54;;;;;;;9.10;2.60;;;;;;;5.71;69.85;101400.53;5054529;28;20033;-35
2022/02/19 09:52:20;;;;;;;;;;;;;;;5.83;69.57;101412.44;5054540;28;20397;-36
2022/02/19 09:54:45;;;;;;;9.63;1.75;;;;;;;5.83;70.09;101415.13;5054361;28;19909;-36
2022/02/19 09:57:10;;;;;;;10.60;2.53;;;;;;;5.87;70.20;101411.06;5054600;28;20041;-36
2022/02/19 09:59:36;;;;;;;10.70;2.07;;;;;;;5.92;70.52;101408.66;5054981;28;20059;-35
2022/02/19 10:02:06;;;;;;;7.33;2.20;;;;;;;6.06;68.84;101424.97;5054194;28;20033;-35
2022/02/19 10:04:32;;;;;;;9.40;2.38;;;;;;;6.10;69.84;101418.16;5054583;28;20029;-36
2022/02/19 10:07:02;;;;;;;10.98;2.53;;;;;;;6.07;69.89;101408.66;5054037;28;20047;-36
2022/02/19 10:09:28;;;;;;;9.15;2.70;;;;;;;6.08;68.42;101428.28;5054462;28;20029;-36
2022/02/19 10:11:54;;;;;;;8.43;1.70;;;;;;;6.06;68.04;101420.41;5054187;28;20506;-36
2022/02/19 10:14:19;;;;;;;9.20;1.90;;;;;;;5.94;68.58;101406.63;5054558;28;20032;-36
2022/02/19 10:17:03;;;;;;;9.33;2.17;;;;;;;6.05;69.59;101423.28;5054121;28;20029;-36
2022/02/19 10:19:28;;;;;;;11.68;2.50;;;;;;;6.01;68.99;101414.78;5053876;28;20036;-36
2022/02/19 10:22:11;;;;;;;7.67;1.83;;;;;;;6.09;69.83;101419.19;5053882;28;20024;-36
2022/02/19 10:24:37;;;;;;;7.50;2.10;;;;;;;6.00;67.44;101415.78;5054009;28;20354;-35
2022/02/19 10:27:03;;;;;;;11.52;2.58;;;;;;;5.99;68.21;101415.97;5053696;28;20036;-35
2022/02/19 10:29:31;;;;;;;;;;;;;;;6.06;67.99;101419.59;5054019;28;20461;-36
2022/02/19 10:31:57;;;;;;;8.38;2.10;;;;;;;6.05;68.62;101428.63;5053615;28;19913;-35
2022/02/19 10:34:22;;;;;;;9.05;2.15;;;;;;;6.24;68.35;101422.69;5053609;28;20044;-35
2022/02/19 10:36:50;;;;;;;10.43;2.33;;;;;;;6.29;68.29;101422.94;5053562;28;20025;-35
2022/02/19 10:39:28;;;;;;;7.93;2.28;;;;;;;6.35;68.48;101419.53;5053224;28;20037;-35
2022/02/19 10:42:05;;;;;;;8.15;1.90;;;;;;;6.47;66.98;101435.16;5053452;28;20032;-36
2022/02/19 10:44:33;;;;;;;6.13;2.05;;;;;;;6.39;65.94;101419.97;5053435;28;20426;-36
2022/02/19 10:47:18;;;;;;;7.75;2.20;;;;;;;6.58;65.60;101431.97;5053313;28;20033;-36
2022/02/19 10:50:11;;;;;;;8.70;2.65;;;;;;;6.55;63.76;101426.97;5053297;28;20032;-36
2022/02/19 10:52:43;;;;;;;10.27;2.58;;;;;;;6.38;64.23;101418.31;5053562;28;20116;-36
2022/02/19 10:55:10;;;;;;;7.88;1.95;;;;;;;6.39;64.96;101439.63;5053856;28;20418;-36
2022/02/19 10:57:46;;;;;;;6.28;2.03;;;;;;;6.33;64.66;101445.72;5053172;28;20115;-35
2022/02/19 11:00:20;;;;;;;9.27;2.15;;;;;;;6.44;65.21;101444.41;5053463;28;20435;-35
2022/02/19 11:02:46;;;;;;;9.50;2.33;;;;;;;6.67;63.78;101442.41;5053403;28;20024;-35
2022/02/19 11:05:12;;;;;;;6.32;1.75;;;;;;;6.86;62.50;101427.50;5053111;28;20462;-36
2022/02/19 11:07:41;;;;;;;9.00;2.58;;;;;;;7.06;62.08;101446.50;5053105;28;20041;-36
2022/02/19 11:10:09;;;;;;;6.18;2.17;;;;;;;7.15;62.47;101431.06;5052040;28;20449;-36
2022/02/19 11:12:35;;;;;;;8.70;2.10;;;;;;;7.18;61.74;101444.97;5053228;28;20029;-36
2022/02/19 11:15:00;;;;;;;9.10;2.08;;;;;;;7.25;62.40;101449.56;5053336;28;20047;-36
2022/02/19 11:17:29;;;;;;;11.25;1.95;;;;;;;7.31;62.72;101446.09;5053487;28;20029;-36
2022/02/19 11:19:59;;;;;;;13.63;3.25;;;;;;;7.25;61.63;101423.50;5053187;28;20082;-36
2022/02/19 11:22:31;;;;;;;8.02;1.67;;;;;;;7.36;62.51;101405.97;5053228;28;20087;-34
2022/02/19 11:24:58;;;;;;;8.40;2.10;;;;;;;7.44;60.49;101413.91;5053259;28;20116;-35
2022/02/19 11:27:26;;;;;;;9.68;2.10;;;;;;;7.67;61.14;101429.81;5052562;28;20465;-36
2022/02/19 11:29:55;;;;;;;9.27;2.10;;;;;;;7.53;59.71;101396.59;5052950;28;20033;-36
2022/02/19 11:32:24;;;;;;;8.77;2.10;;;;;;;7.51;59.22;101419.31;5052771;28;20029;-36
2022/02/19 11:34:50;;;;;;;8.82;1.90;;;;;;;7.51;59.10;101430.09;5053387;28;20048;-36
2022/02/19 11:37:18;;;;;;;10.38;2.28;;;;;;;7.66;59.15;101414.66;5053064;28;20040;-36